Geyserville, California
Current Conditions -  °F | °C
As of 4:53 AM on Monday 24 Nov 2014 (Local Time) from KSTS Reporting Station
Clear Clear  
Wind Chill: 39°   Ceiling: Unl
Heat Index: 39°   Visibility: 10mi
Dew Point: 39°   Wind: 3mph
Humidity: 100%   Direction: 300°WNW
Pressure: 30.34"   Gusts: NA
Location:  38.71°N, 122.91°W
Report Text: KSTS 241253Z AUTO 30003KT 10SM CLR 04/04 A3034 RMK AO2 SLP268 T00390039
Loading
Personal Weather Stations






























Interactive Weather Map New forecast layout! Learn more

10-Day Weather Forecast

Advertisements
Track Severe Weather on mobile